createdAt,value
2017-09-10T00:00:19.198Z,13.50
2017-09-10T00:02:47.503Z,13.40
2017-09-10T00:05:15.779Z,13.40
2017-09-10T00:07:44.093Z,13.40
2017-09-10T00:10:12.398Z,13.30
2017-09-10T00:12:40.711Z,13.30
2017-09-10T00:15:08.991Z,13.30
2017-09-10T00:17:37.263Z,13.30
2017-09-10T00:20:05.608Z,13.30
2017-09-10T00:22:33.899Z,13.30
2017-09-10T00:25:02.215Z,13.20
2017-09-10T00:27:32.544Z,13.20
2017-09-10T00:30:00.880Z,13.20
2017-09-10T00:32:29.211Z,13.20
2017-09-10T00:34:57.495Z,13.20
2017-09-10T00:37:25.891Z,13.20
2017-09-10T00:39:54.999Z,13.20
2017-09-10T00:42:23.342Z,13.10
2017-09-10T00:44:52.743Z,13.10
2017-09-10T00:47:21.043Z,13.00
2017-09-10T00:49:49.362Z,13.00
2017-09-10T00:52:17.662Z,13.00
2017-09-10T00:54:45.977Z,12.90
2017-09-10T00:57:14.308Z,12.90
2017-09-10T00:59:42.591Z,12.90
2017-09-10T01:02:10.903Z,12.90
2017-09-10T01:04:39.231Z,12.80
2017-09-10T01:07:08.360Z,12.80
2017-09-10T01:09:36.639Z,12.80
2017-09-10T01:12:04.956Z,12.80
2017-09-10T01:14:33.258Z,12.80
2017-09-10T01:17:01.547Z,12.90
2017-09-10T01:19:29.879Z,12.80
2017-09-10T01:21:58.973Z,12.80
2017-09-10T01:24:27.313Z,12.70
2017-09-10T01:26:55.633Z,12.70
2017-09-10T01:29:23.941Z,12.80
2017-09-10T01:31:52.228Z,12.80
2017-09-10T01:34:20.565Z,12.80
2017-09-10T01:36:51.888Z,12.80
2017-09-10T01:39:20.223Z,12.70
2017-09-10T01:41:48.524Z,12.60
2017-09-10T01:44:16.812Z,12.50
2017-09-10T01:46:45.132Z,12.60
2017-09-10T01:49:13.415Z,12.60
2017-09-10T01:51:42.459Z,12.50
2017-09-10T01:54:10.763Z,12.50
2017-09-10T01:56:39.051Z,12.50
2017-09-10T01:59:07.384Z,12.50
2017-09-10T02:01:35.660Z,12.50
2017-09-10T02:04:04.238Z,12.50
2017-09-10T02:06:32.579Z,12.40
2017-09-10T02:09:00.886Z,12.40
2017-09-10T02:11:29.172Z,12.40
2017-09-10T02:13:57.500Z,12.40
2017-09-10T02:16:25.801Z,12.30
2017-09-10T02:18:54.084Z,12.30
2017-09-10T02:21:22.395Z,12.30
2017-09-10T02:23:52.828Z,12.30
2017-09-10T02:26:21.172Z,12.20
2017-09-10T02:28:49.477Z,12.20
2017-09-10T02:31:17.759Z,12.20
2017-09-10T02:33:46.062Z,12.20
2017-09-10T02:36:14.355Z,12.10
2017-09-10T02:38:42.664Z,12.10
2017-09-10T02:41:10.983Z,12.10
2017-09-10T02:43:40.151Z,12.10
2017-09-10T02:46:09.229Z,12.00
2017-09-10T02:48:37.523Z,11.90
2017-09-10T02:51:05.847Z,12.00
2017-09-10T02:53:34.536Z,12.00
2017-09-10T02:56:04.349Z,11.90
2017-09-10T02:58:32.668Z,11.90
2017-09-10T03:01:00.951Z,12.00
2017-09-10T03:03:29.287Z,11.90
2017-09-10T03:05:57.580Z,11.90
2017-09-10T03:08:25.880Z,11.90
2017-09-10T03:10:54.219Z,11.90
2017-09-10T03:13:22.535Z,11.80
2017-09-10T03:15:50.839Z,11.80
2017-09-10T03:18:20.111Z,11.80
2017-09-10T03:20:48.426Z,11.80
2017-09-10T03:23:16.782Z,11.70
2017-09-10T03:25:45.773Z,11.70
2017-09-10T03:28:14.132Z,11.70
2017-09-10T03:30:42.413Z,11.70
2017-09-10T03:33:10.727Z,11.70
2017-09-10T03:35:39.029Z,11.70
2017-09-10T03:38:12.904Z,11.70
2017-09-10T03:40:41.188Z,11.70
2017-09-10T03:43:09.459Z,11.70
2017-09-10T03:45:37.811Z,11.60
2017-09-10T03:48:06.091Z,11.60
2017-09-10T03:50:34.433Z,11.60
2017-09-10T03:53:02.807Z,11.60
2017-09-10T03:55:31.123Z,11.70
2017-09-10T03:57:59.425Z,11.60
2017-09-10T04:00:27.713Z,11.60
2017-09-10T04:02:56.026Z,11.60
2017-09-10T04:05:24.320Z,11.50
2017-09-10T04:07:52.672Z,11.50
2017-09-10T04:10:20.983Z,11.40
2017-09-10T04:12:50.807Z,11.50
2017-09-10T04:15:19.133Z,11.40
2017-09-10T04:17:47.458Z,11.50
2017-09-10T04:20:15.785Z,11.40
2017-09-10T04:22:44.076Z,11.40
2017-09-10T04:25:12.491Z,11.40
2017-09-10T04:27:40.776Z,11.30
2017-09-10T04:30:09.103Z,11.30
2017-09-10T04:32:37.394Z,11.30
2017-09-10T04:35:05.713Z,11.30
2017-09-10T04:37:34.747Z,11.30
2017-09-10T04:40:03.555Z,11.20
2017-09-10T04:42:33.890Z,11.20
2017-09-10T04:45:03.122Z,11.20
2017-09-10T04:47:31.935Z,11.20
2017-09-10T04:50:18.703Z,11.10
2017-09-10T04:52:46.986Z,11.10
2017-09-10T04:55:15.291Z,11.10
2017-09-10T04:57:43.613Z,11.10
2017-09-10T05:00:11.910Z,11.00
2017-09-10T05:02:40.188Z,11.00
2017-09-10T05:05:08.528Z,11.00
2017-09-10T05:07:36.840Z,11.00
2017-09-10T05:10:05.185Z,11.00
2017-09-10T05:12:33.551Z,11.00
2017-09-10T05:15:02.893Z,11.00
2017-09-10T05:17:32.304Z,11.00
2017-09-10T05:20:00.627Z,11.00
2017-09-10T05:22:28.913Z,11.00
2017-09-10T05:24:57.215Z,11.00
2017-09-10T05:27:25.526Z,11.00
2017-09-10T05:29:53.840Z,11.00
2017-09-10T05:32:22.140Z,11.00
2017-09-10T05:34:50.479Z,11.00
2017-09-10T05:37:20.533Z,11.00
2017-09-10T05:39:48.890Z,11.00
2017-09-10T05:42:17.252Z,11.10
2017-09-10T05:44:45.615Z,11.10
2017-09-10T05:47:13.907Z,11.20
2017-09-10T05:49:42.188Z,11.30
2017-09-10T05:52:10.542Z,11.40
2017-09-10T05:54:38.873Z,11.50
2017-09-10T05:57:07.171Z,11.50
2017-09-10T05:59:35.548Z,11.50
2017-09-10T06:02:04.790Z,11.50
2017-09-10T06:04:33.769Z,11.50
2017-09-10T06:07:02.808Z,11.60
2017-09-10T06:09:31.131Z,11.60
2017-09-10T06:11:59.442Z,11.60
2017-09-10T06:14:28.785Z,11.70
2017-09-10T06:16:57.119Z,11.70
2017-09-10T06:19:25.455Z,11.80
2017-09-10T06:21:53.783Z,11.80
2017-09-10T06:24:22.134Z,11.90
2017-09-10T06:26:55.199Z,11.90
2017-09-10T06:29:23.568Z,11.90
2017-09-10T06:31:51.857Z,11.90
2017-09-10T06:34:21.693Z,12.00
2017-09-10T06:36:50.016Z,12.10
2017-09-10T06:39:20.289Z,12.20
2017-09-10T06:41:48.566Z,12.20
2017-09-10T06:44:16.887Z,12.40
2017-09-10T06:46:45.189Z,12.40
2017-09-10T06:49:13.686Z,12.50
2017-09-10T06:51:42.695Z,12.50
2017-09-10T06:54:13.985Z,12.50
2017-09-10T06:56:43.057Z,12.60
2017-09-10T06:59:11.398Z,12.50
2017-09-10T07:01:39.705Z,12.50
2017-09-10T07:04:07.989Z,12.50
2017-09-10T07:06:36.364Z,12.50
2017-09-10T07:09:04.712Z,12.40
2017-09-10T07:11:34.118Z,12.50
2017-09-10T07:14:02.796Z,12.60
2017-09-10T07:16:31.087Z,12.60
2017-09-10T07:18:59.419Z,12.60
2017-09-10T07:21:28.189Z,12.60
2017-09-10T07:24:04.765Z,12.60
2017-09-10T07:26:33.894Z,12.60
2017-09-10T07:29:02.525Z,12.70
2017-09-10T07:34:22.590Z,12.60
2017-09-10T07:36:50.928Z,12.70
2017-09-10T07:39:19.243Z,12.70
2017-09-10T07:41:47.561Z,12.80
2017-09-10T07:44:15.856Z,12.90
2017-09-10T07:46:44.265Z,13.10
2017-09-10T07:49:12.563Z,13.20
2017-09-10T07:51:40.848Z,13.20
2017-09-10T07:54:09.221Z,13.30
2017-09-10T07:56:37.509Z,13.40
2017-09-10T07:59:05.839Z,13.40
2017-09-10T08:01:34.116Z,13.60
2017-09-10T08:04:02.457Z,13.30
2017-09-10T08:06:30.772Z,13.40
2017-09-10T08:08:59.076Z,13.50
2017-09-10T08:11:27.424Z,13.60
2017-09-10T08:13:55.720Z,13.60
2017-09-10T08:16:24.037Z,13.60
2017-09-10T08:18:52.326Z,13.70
2017-09-10T08:21:20.669Z,13.70
2017-09-10T08:23:49.262Z,13.80
2017-09-10T08:26:17.566Z,13.80
2017-09-10T08:28:49.408Z,13.70
2017-09-10T08:31:18.756Z,13.80
2017-09-10T08:33:47.075Z,13.70
2017-09-10T08:36:19.555Z,13.70
2017-09-10T08:38:47.851Z,13.60
2017-09-10T08:41:16.272Z,13.70
2017-09-10T08:43:45.814Z,13.70
2017-09-10T08:46:14.218Z,13.60
2017-09-10T08:48:47.352Z,13.60
2017-09-10T08:51:17.575Z,13.60
2017-09-10T08:53:46.105Z,13.60
2017-09-10T08:56:14.824Z,13.60
2017-09-10T08:58:43.191Z,13.70
2017-09-10T09:01:11.482Z,13.80
2017-09-10T09:03:40.041Z,13.90
2017-09-10T09:06:10.611Z,13.90
2017-09-10T09:21:59.213Z,14.50
2017-09-10T09:24:27.528Z,14.60
2017-09-10T09:26:55.901Z,14.80
2017-09-10T09:29:24.997Z,15.50
2017-09-10T09:31:53.321Z,15.50
2017-09-10T09:34:21.633Z,15.70
2017-09-10T09:36:49.966Z,16.00
2017-09-10T09:39:18.262Z,16.40
2017-09-10T09:44:16.231Z,16.30
2017-09-10T09:46:44.580Z,17.60
2017-09-10T09:49:12.929Z,17.50
2017-09-10T09:51:41.551Z,17.10
2017-09-10T09:54:10.686Z,17.00
2017-09-10T09:56:39.012Z,17.00
2017-09-10T09:59:07.306Z,17.00
2017-09-10T10:01:35.606Z,17.00
2017-09-10T10:04:03.921Z,17.20
2017-09-10T10:06:32.213Z,17.10
2017-09-10T10:09:00.542Z,17.10
2017-09-10T10:11:28.834Z,16.80
2017-09-10T10:13:57.124Z,16.80
2017-09-10T10:16:25.452Z,16.80
2017-09-10T10:18:53.749Z,16.70
2017-09-10T10:21:22.236Z,16.60
2017-09-10T10:23:50.548Z,16.80
2017-09-10T10:26:18.842Z,16.90
2017-09-10T10:28:47.158Z,17.10
2017-09-10T10:31:15.480Z,16.80
2017-09-10T10:33:43.839Z,16.90
2017-09-10T10:36:12.137Z,16.90
2017-09-10T10:38:40.429Z,16.70
2017-09-10T10:41:08.790Z,16.60
2017-09-10T10:43:37.453Z,16.70
2017-09-10T10:46:05.792Z,16.80
2017-09-10T10:48:34.090Z,16.80
2017-09-10T10:51:02.415Z,16.60
2017-09-10T10:53:30.728Z,16.60
2017-09-10T10:55:59.076Z,16.70
2017-09-10T10:58:27.388Z,16.70
2017-09-10T11:00:55.676Z,16.50
2017-09-10T11:03:24.043Z,16.40
2017-09-10T11:05:52.350Z,16.50
2017-09-10T11:08:20.673Z,16.80
2017-09-10T11:10:49.002Z,17.10
2017-09-10T11:13:17.306Z,17.20
2017-09-10T11:15:45.633Z,17.10
2017-09-10T11:18:13.930Z,17.10
2017-09-10T11:20:42.244Z,17.10
2017-09-10T11:23:10.569Z,17.20
2017-09-10T11:25:38.899Z,17.40
2017-09-10T11:28:07.205Z,17.50
2017-09-10T11:30:35.554Z,17.80
2017-09-10T11:33:03.848Z,18.00
2017-09-10T11:35:32.164Z,18.00
2017-09-10T11:38:00.448Z,18.30
2017-09-10T11:40:28.788Z,18.60
2017-09-10T11:45:26.745Z,18.50
2017-09-10T11:47:55.062Z,18.80
2017-09-10T11:50:23.371Z,18.60
2017-09-10T11:52:51.685Z,18.50
2017-09-10T11:55:19.979Z,18.70
2017-09-10T11:57:48.416Z,18.30
2017-09-10T12:00:16.791Z,18.50
2017-09-10T12:02:45.080Z,18.70
2017-09-10T12:05:13.403Z,18.60
2017-09-10T12:07:41.961Z,18.30
2017-09-10T12:10:10.260Z,18.40
2017-09-10T12:12:38.581Z,18.30
2017-09-10T12:15:06.865Z,18.20
2017-09-10T12:17:35.893Z,18.20
2017-09-10T12:20:04.236Z,18.20
2017-09-10T12:22:33.313Z,18.20
2017-09-10T12:25:01.635Z,18.20
2017-09-10T12:27:29.927Z,18.40
2017-09-10T12:29:58.251Z,18.30
2017-09-10T12:32:26.541Z,18.50
2017-09-10T12:34:54.879Z,19.00
2017-09-10T12:37:23.170Z,19.20
2017-09-10T12:39:51.482Z,19.20
2017-09-10T12:42:19.769Z,19.30
2017-09-10T12:44:48.097Z,19.00
2017-09-10T12:47:16.389Z,18.70
2017-09-10T12:49:44.688Z,18.80
2017-09-10T12:52:13.002Z,19.00
2017-09-10T12:54:41.348Z,19.30
2017-09-10T12:57:09.667Z,19.40
2017-09-10T12:59:37.997Z,19.40
2017-09-10T13:02:06.286Z,19.30
2017-09-10T13:04:34.578Z,19.10
2017-09-10T13:07:02.894Z,19.30
2017-09-10T13:09:31.214Z,19.20
2017-09-10T13:11:59.500Z,19.00
2017-09-10T13:14:27.793Z,19.10
2017-09-10T13:16:56.124Z,19.40
2017-09-10T13:19:24.441Z,19.40
2017-09-10T13:21:52.727Z,19.30
2017-09-10T13:24:21.046Z,19.40
2017-09-10T13:26:49.385Z,19.10
2017-09-10T13:29:17.713Z,18.90
2017-09-10T13:31:46.001Z,19.10
2017-09-10T13:34:14.326Z,19.10
2017-09-10T13:36:42.686Z,19.00
2017-09-10T13:39:10.999Z,18.90
2017-09-10T13:41:39.320Z,18.60
2017-09-10T13:44:07.652Z,18.40
2017-09-10T13:46:35.932Z,18.30
2017-09-10T13:49:04.241Z,18.50
2017-09-10T13:51:32.575Z,18.50
2017-09-10T13:54:00.882Z,18.40
2017-09-10T13:56:29.205Z,18.30
2017-09-10T13:58:57.613Z,18.50
2017-09-10T14:01:25.894Z,18.40
2017-09-10T14:03:54.205Z,18.30
2017-09-10T14:06:22.506Z,18.70
2017-09-10T14:08:50.843Z,18.90
2017-09-10T14:11:19.129Z,19.00
2017-09-10T14:13:47.414Z,18.80
2017-09-10T14:16:15.816Z,18.70
2017-09-10T14:18:44.117Z,18.70
2017-09-10T14:21:12.436Z,18.80
2017-09-10T14:23:40.756Z,19.10
2017-09-10T14:26:09.053Z,19.30
2017-09-10T14:28:37.389Z,19.40
2017-09-10T14:31:05.743Z,19.40
2017-09-10T14:33:34.809Z,19.10
2017-09-10T14:36:03.113Z,19.00
2017-09-10T14:38:31.427Z,19.10
2017-09-10T14:40:59.720Z,19.00
2017-09-10T14:43:28.045Z,18.90
2017-09-10T14:45:56.338Z,18.80
2017-09-10T14:48:24.757Z,18.80
2017-09-10T14:50:53.042Z,18.90
2017-09-10T14:53:21.369Z,19.00
2017-09-10T14:55:49.657Z,19.00
2017-09-10T14:58:17.961Z,19.10
2017-09-10T15:00:46.295Z,19.00
2017-09-10T15:03:14.665Z,18.90
2017-09-10T15:05:43.267Z,18.70
2017-09-10T15:08:11.614Z,18.50
2017-09-10T15:10:40.008Z,18.40
2017-09-10T15:13:08.336Z,18.40
2017-09-10T15:15:36.659Z,18.40
2017-09-10T15:18:04.970Z,18.40
2017-09-10T15:20:33.301Z,18.40
2017-09-10T15:23:01.588Z,18.10
2017-09-10T15:25:29.892Z,18.00
2017-09-10T15:27:58.205Z,17.90
2017-09-10T15:30:26.527Z,17.80
2017-09-10T15:32:54.858Z,17.70
2017-09-10T15:35:23.181Z,17.70
2017-09-10T15:37:51.598Z,17.60
2017-09-10T15:40:19.974Z,17.50
2017-09-10T15:42:48.280Z,17.50
2017-09-10T15:45:17.376Z,17.40
2017-09-10T15:47:45.705Z,17.50
2017-09-10T15:50:14.009Z,17.40
2017-09-10T15:52:42.329Z,17.40
2017-09-10T15:55:10.692Z,17.30
2017-09-10T15:57:38.982Z,17.40
2017-09-10T16:00:07.369Z,17.40
2017-09-10T16:02:35.674Z,17.30
2017-09-10T16:05:03.997Z,17.40
2017-09-10T16:07:32.385Z,17.30
2017-09-10T16:10:00.669Z,17.30
2017-09-10T16:12:28.993Z,17.20
2017-09-10T16:14:57.278Z,17.10
2017-09-10T16:17:25.691Z,17.10
2017-09-10T16:19:54.003Z,17.00
2017-09-10T16:22:22.290Z,17.00
2017-09-10T16:24:50.634Z,17.00
2017-09-10T16:27:18.952Z,17.00
2017-09-10T16:29:47.273Z,16.90
2017-09-10T16:32:15.605Z,16.90
2017-09-10T16:34:43.925Z,16.90
2017-09-10T16:37:12.254Z,16.90
2017-09-10T16:39:40.591Z,16.80
2017-09-10T16:42:08.882Z,16.70
2017-09-10T16:44:37.175Z,16.70
2017-09-10T16:47:05.490Z,16.70
2017-09-10T16:49:33.799Z,16.70
2017-09-10T16:52:02.115Z,16.70
2017-09-10T16:54:30.410Z,16.60
2017-09-10T16:56:58.753Z,16.60
2017-09-10T16:59:27.048Z,16.50
2017-09-10T17:01:56.110Z,16.40
2017-09-10T17:04:24.422Z,16.40
2017-09-10T17:06:52.766Z,16.40
2017-09-10T17:09:21.085Z,16.40
2017-09-10T17:11:49.382Z,16.40
2017-09-10T17:14:17.717Z,16.40
2017-09-10T17:16:46.024Z,16.30
2017-09-10T17:19:14.309Z,16.20
2017-09-10T17:21:42.628Z,16.20
2017-09-10T17:24:10.913Z,16.10
2017-09-10T17:26:39.233Z,16.10
2017-09-10T17:29:07.527Z,16.10
2017-09-10T17:31:35.853Z,16.00
2017-09-10T17:34:04.158Z,16.00
2017-09-10T17:36:32.561Z,16.00
2017-09-10T17:39:00.896Z,16.00
2017-09-10T17:41:29.185Z,15.90
2017-09-10T17:43:57.477Z,15.90
2017-09-10T17:46:25.801Z,15.90
2017-09-10T17:48:54.089Z,15.90
2017-09-10T17:51:22.381Z,15.80
2017-09-10T17:53:50.706Z,15.80
2017-09-10T17:56:18.993Z,15.80
2017-09-10T17:58:47.284Z,15.80
2017-09-10T18:03:45.619Z,15.80
2017-09-10T18:06:13.960Z,15.80
2017-09-10T18:08:42.268Z,15.70
2017-09-10T18:11:10.582Z,15.60
2017-09-10T18:13:38.874Z,15.60
2017-09-10T18:16:07.185Z,15.60
2017-09-10T18:18:35.508Z,15.50
2017-09-10T18:21:03.835Z,15.50
2017-09-10T18:23:32.156Z,15.40
2017-09-10T18:26:00.481Z,15.30
2017-09-10T18:28:28.801Z,15.20
2017-09-10T18:30:57.853Z,15.20
2017-09-10T18:33:26.172Z,15.20
2017-09-10T18:35:54.647Z,15.10
2017-09-10T18:38:22.953Z,15.00
2017-09-10T18:40:51.266Z,15.00
2017-09-10T18:43:19.580Z,15.00
2017-09-10T18:45:48.010Z,14.90
2017-09-10T18:48:16.327Z,14.90
2017-09-10T18:50:44.774Z,14.90
2017-09-10T18:53:13.098Z,14.90
2017-09-10T18:55:41.442Z,14.80
2017-09-10T18:58:09.865Z,14.80
2017-09-10T19:00:38.174Z,14.80
2017-09-10T19:03:06.483Z,14.70
2017-09-10T19:05:34.806Z,14.60
2017-09-10T19:08:03.148Z,14.60
2017-09-10T19:13:06.071Z,14.50
2017-09-10T19:15:34.420Z,14.40
2017-09-10T19:18:02.733Z,14.40
2017-09-10T19:20:31.024Z,14.40
2017-09-10T19:22:59.339Z,14.30
2017-09-10T19:25:27.626Z,14.40
2017-09-10T19:27:55.941Z,14.30
2017-09-10T19:30:24.229Z,14.30
2017-09-10T19:32:52.589Z,14.30
2017-09-10T19:35:20.895Z,14.30
2017-09-10T19:37:49.210Z,14.30
2017-09-10T19:40:17.533Z,14.20
2017-09-10T19:42:45.955Z,14.20
2017-09-10T19:45:14.294Z,14.20
2017-09-10T19:47:42.583Z,14.30
2017-09-10T19:50:10.910Z,14.30
2017-09-10T19:52:39.217Z,14.30
2017-09-10T19:55:07.517Z,14.30
2017-09-10T19:57:35.925Z,14.20
2017-09-10T20:00:04.217Z,14.20
2017-09-10T20:02:32.522Z,14.20
2017-09-10T20:05:00.868Z,14.20
2017-09-10T20:07:29.166Z,14.50
2017-09-10T20:09:57.485Z,14.10
2017-09-10T20:12:25.774Z,14.10
2017-09-10T20:14:54.070Z,14.00
2017-09-10T20:17:22.399Z,14.00
2017-09-10T20:19:50.765Z,13.90
2017-09-10T20:22:19.070Z,13.90
2017-09-10T20:24:47.398Z,13.90
2017-09-10T20:27:15.754Z,13.80
2017-09-10T20:29:44.065Z,13.80
2017-09-10T20:32:12.405Z,13.80
2017-09-10T20:34:40.725Z,13.80
2017-09-10T20:37:09.031Z,13.90
2017-09-10T20:39:37.353Z,13.90
2017-09-10T20:42:05.671Z,13.90
2017-09-10T20:44:34.008Z,13.90
2017-09-10T20:47:02.356Z,14.00
2017-09-10T20:49:30.649Z,14.00
2017-09-10T20:51:59.004Z,14.10
2017-09-10T20:54:27.362Z,14.00
2017-09-10T20:56:55.649Z,13.90
2017-09-10T20:59:23.943Z,13.80
2017-09-10T21:01:53.273Z,13.80
2017-09-10T21:04:21.561Z,13.70
2017-09-10T21:06:49.858Z,13.70
2017-09-10T21:09:18.222Z,13.70
2017-09-10T21:11:46.644Z,13.70
2017-09-10T21:14:14.974Z,13.60
2017-09-10T21:16:43.296Z,13.50
2017-09-10T21:19:11.650Z,13.50
2017-09-10T21:21:39.946Z,13.40
2017-09-10T21:24:08.269Z,13.30
2017-09-10T21:26:37.322Z,13.20
2017-09-10T21:29:05.782Z,13.20
2017-09-10T21:31:34.078Z,13.20
2017-09-10T21:34:02.444Z,13.20
2017-09-10T21:36:30.741Z,13.20
2017-09-10T21:38:59.026Z,13.20
2017-09-10T21:41:27.341Z,13.30
2017-09-10T21:43:55.650Z,13.30
2017-09-10T21:46:24.002Z,13.30
2017-09-10T21:48:52.297Z,13.30
2017-09-10T21:51:21.361Z,13.40
2017-09-10T21:53:49.690Z,13.30
2017-09-10T21:56:17.993Z,13.30
2017-09-10T21:58:46.290Z,13.30
2017-09-10T22:01:14.601Z,13.30
2017-09-10T22:03:42.891Z,13.40
2017-09-10T22:06:11.231Z,13.30
2017-09-10T22:08:39.535Z,13.30
2017-09-10T22:11:07.867Z,13.30
2017-09-10T22:13:36.190Z,13.20
2017-09-10T22:16:04.622Z,13.20
2017-09-10T22:18:32.998Z,13.20
2017-09-10T22:21:01.325Z,13.20
2017-09-10T22:23:29.633Z,13.20
2017-09-10T22:25:57.971Z,13.10
2017-09-10T22:28:26.316Z,13.10
2017-09-10T22:30:54.612Z,13.00
2017-09-10T22:33:22.901Z,13.10
2017-09-10T22:35:51.210Z,13.20
2017-09-10T22:38:19.544Z,13.10
2017-09-10T22:40:47.916Z,13.10
2017-09-10T22:43:16.229Z,13.10
2017-09-10T22:45:44.533Z,13.10
2017-09-10T22:48:12.858Z,13.10
2017-09-10T22:50:42.647Z,13.10
2017-09-10T22:53:10.986Z,13.10
2017-09-10T22:55:39.318Z,13.00
2017-09-10T22:58:07.628Z,13.00
2017-09-10T23:00:36.694Z,13.00
2017-09-10T23:03:05.034Z,13.00
2017-09-10T23:05:33.337Z,13.10
2017-09-10T23:08:01.680Z,13.00
2017-09-10T23:10:30.006Z,12.90
2017-09-10T23:12:58.325Z,12.90
2017-09-10T23:15:26.620Z,12.80
2017-09-10T23:17:54.944Z,12.80
2017-09-10T23:20:23.268Z,12.80
2017-09-10T23:22:51.586Z,12.80
2017-09-10T23:25:19.879Z,12.80
2017-09-10T23:27:48.262Z,12.90
2017-09-10T23:30:16.623Z,13.00
2017-09-10T23:32:44.949Z,13.00
2017-09-10T23:35:13.369Z,13.10
2017-09-10T23:37:41.700Z,13.20
2017-09-10T23:40:09.981Z,13.30
2017-09-10T23:42:38.297Z,13.20
2017-09-10T23:45:06.621Z,13.30
2017-09-10T23:47:34.905Z,13.30
2017-09-10T23:50:03.197Z,13.30
2017-09-10T23:52:31.549Z,13.30
2017-09-10T23:54:59.889Z,13.30
2017-09-10T23:57:28.256Z,13.40
2017-09-10T23:59:56.572Z,13.30
